Time;durP1;ratioP1;P1;durP2;ratioP2;P2;SDS_P1;SDS_P2;PMS_P1;PMS_P2;Temp;Humidity;BMP_temperature;BMP_pressure;BME280_temperature;BME280_humidity;BME280_pressure;Samples;Min_cycle;Max_cycle;Signal;HPM_P1;HPM_P2
2021/08/12 00:02:23;;;;;;;;;20.00;18.50;;;;;21.20;69.50;101646.63;5073826;28;45456;-69
2021/08/12 00:04:49;;;;;;;;;15.75;15.50;;;;;21.21;69.87;101647.47;5074895;27;45421;-68
2021/08/12 00:07:15;;;;;;;;;16.25;15.50;;;;;21.18;69.42;101639.66;5075567;27;46595;-69
2021/08/12 00:09:40;;;;;;;;;22.25;17.75;;;;;21.16;69.94;101642.44;5073166;28;45504;-69
2021/08/12 00:12:06;;;;;;;;;16.50;15.25;;;;;21.14;70.08;101638.16;5073039;27;45497;-68
2021/08/12 00:14:32;;;;;;;;;21.50;18.50;;;;;21.08;69.77;101632.31;5072311;27;45554;-69
2021/08/12 00:16:58;;;;;;;;;21.00;18.50;;;;;21.09;70.40;101642.06;5073768;28;45769;-69
2021/08/12 00:19:23;;;;;;;;;17.50;16.50;;;;;21.09;70.61;101639.38;5075304;27;45516;-68
2021/08/12 00:21:48;;;;;;;;;21.00;17.00;;;;;21.08;70.07;101629.63;5072739;27;45566;-69
2021/08/12 00:24:14;;;;;;;;;20.50;18.25;;;;;21.07;70.00;101633.28;5073608;28;45439;-69
2021/08/12 00:26:40;;;;;;;;;18.25;18.00;;;;;21.06;69.98;101631.56;5072681;28;46333;-68
2021/08/12 00:29:06;;;;;;;;;21.25;19.25;;;;;21.03;69.92;101630.94;5073613;27;45590;-69
2021/08/12 00:31:34;;;;;;;;;21.25;18.25;;;;;21.01;70.16;101625.69;5073697;27;45951;-68
2021/08/12 00:34:00;;;;;;;;;16.25;16.25;;;;;21.00;70.65;101631.16;5075973;27;45432;-69
2021/08/12 00:36:25;;;;;;;;;20.75;16.25;;;;;20.95;70.14;101634.19;5071260;27;46532;-69
2021/08/12 00:38:51;;;;;;;;;16.50;15.75;;;;;20.90;70.43;101625.63;5073508;27;45470;-69
2021/08/12 00:41:16;;;;;;;;;21.75;18.25;;;;;20.89;70.60;101620.41;5073394;28;45560;-68
2021/08/12 00:43:41;;;;;;;;;18.75;16.25;;;;;20.82;70.41;101628.00;5071877;28;45608;-70
2021/08/12 00:46:07;;;;;;;;;19.50;17.75;;;;;20.80;71.00;101621.91;5074497;27;45453;-69
2021/08/12 00:48:32;;;;;;;;;17.25;17.25;;;;;20.76;71.18;101623.94;5073144;28;45472;-69
2021/08/12 00:50:57;;;;;;;;;17.50;16.00;;;;;20.73;71.14;101631.34;5072928;27;49666;-69
2021/08/12 00:53:23;;;;;;;;;18.50;15.50;;;;;20.70;70.96;101620.88;5071659;27;45474;-68
2021/08/12 00:55:48;;;;;;;;;19.25;18.50;;;;;20.67;70.95;101613.06;5072934;27;46432;-69
2021/08/12 00:58:14;;;;;;;;;18.00;16.50;;;;;20.64;71.56;101618.63;5075296;27;45378;-69
2021/08/12 01:00:40;;;;;;;;;17.75;17.00;;;;;20.63;71.33;101620.47;5071397;27;45442;-69
2021/08/12 01:03:12;;;;;;;;;21.50;19.50;;;;;20.59;71.23;101616.28;5072979;27;45716;-69
2021/08/12 01:05:43;;;;;;;;;24.25;19.75;;;;;20.55;71.25;101609.44;5073142;27;46540;-69
2021/08/12 01:08:17;;;;;;;;;19.00;18.75;;;;;20.57;71.57;101615.56;5072908;28;45653;-69
2021/08/12 01:10:54;;;;;;;;;23.00;20.00;;;;;20.56;71.14;101609.34;5072766;27;45460;-69
2021/08/12 01:13:41;;;;;;;;;21.75;17.25;;;;;20.53;71.08;101612.25;5071067;28;45408;-69
2021/08/12 01:16:10;;;;;;;;;24.00;20.50;;;;;20.48;71.26;101609.03;5073308;28;45720;-69
2021/08/12 01:18:41;;;;;;;;;23.25;21.50;;;;;20.45;71.90;101611.88;5073112;27;45480;-68
2021/08/12 01:21:44;;;;;;;;;25.75;22.25;;;;;20.44;71.59;101604.84;5073172;27;45366;-68
2021/08/12 01:24:12;;;;;;;;;22.00;17.75;;;;;20.43;72.12;101616.50;5068323;28;45406;-69
2021/08/12 01:26:41;;;;;;;;;25.75;22.00;;;;;20.38;72.10;101623.97;5073212;27;46544;-69
2021/08/12 01:29:18;;;;;;;;;21.25;19.50;;;;;20.37;71.87;101624.09;5072869;27;45579;-69
2021/08/12 01:31:44;;;;;;;;;23.50;18.25;;;;;20.34;71.55;101625.13;5056099;27;45371;-68
2021/08/12 01:34:21;;;;;;;;;19.67;17.33;;;;;20.30;72.41;101624.50;5074636;28;45608;-68
2021/08/12 01:36:48;;;;;;;;;22.75;17.25;;;;;20.29;71.84;101621.94;5073858;27;45467;-69
2021/08/12 01:39:15;;;;;;;;;23.00;20.25;;;;;20.25;71.66;101612.44;5070421;28;45804;-68
2021/08/12 01:41:43;;;;;;;;;24.25;18.25;;;;;20.25;72.07;101615.09;5072541;27;45311;-69
2021/08/12 01:44:12;;;;;;;;;26.25;20.25;;;;;20.20;72.39;101607.44;5079384;27;45583;-69
2021/08/12 01:46:38;;;;;;;;;20.50;20.25;;;;;20.21;71.96;101610.97;5075900;27;46703;-69
2021/08/12 01:49:04;;;;;;;;;23.25;22.50;;;;;20.18;72.65;101620.00;5078134;27;45570;-69
2021/08/12 01:51:32;;;;;;;;;28.00;21.25;;;;;20.18;72.93;101621.84;5076409;27;45302;-68
2021/08/12 01:54:00;;;;;;;;;29.00;25.25;;;;;20.18;72.22;101617.34;5076051;27;45578;-69
2021/08/12 01:56:27;;;;;;;;;29.00;25.25;;;;;20.14;73.01;101620.31;5075698;27;46581;-69
2021/08/12 01:58:56;;;;;;;;;25.25;20.75;;;;;20.11;73.16;101615.22;5075143;27;47004;-69
2021/08/12 02:01:22;;;;;;;;;26.25;23.75;;;;;20.09;73.07;101609.97;5078077;27;45445;-69
2021/08/12 02:03:49;;;;;;;;;25.50;22.50;;;;;20.06;72.64;101616.38;5076599;28;45450;-69
2021/08/12 02:06:14;;;;;;;;;25.00;23.00;;;;;20.02;73.17;101606.88;5075630;27;47086;-68
2021/08/12 02:08:39;;;;;;;;;28.50;23.00;;;;;19.99;72.70;101611.56;5075173;27;47506;-68
2021/08/12 02:11:05;;;;;;;;;23.50;22.50;;;;;19.99;73.15;101620.44;5074548;27;45460;-69
2021/08/12 02:13:32;;;;;;;;;24.75;23.50;;;;;19.97;72.96;101618.81;5075970;27;45499;-68
2021/08/12 02:15:57;;;;;;;;;27.00;22.75;;;;;19.96;73.04;101620.66;5075427;27;45337;-69
2021/08/12 02:18:22;;;;;;;;;28.25;24.75;;;;;19.95;72.99;101621.59;5076242;27;45356;-69
2021/08/12 02:21:04;;;;;;;;;26.25;22.75;;;;;19.96;73.29;101627.78;5075588;28;45507;-68
2021/08/12 02:23:34;;;;;;;;;32.25;24.25;;;;;19.93;73.25;101620.84;5074986;27;45583;-69
2021/08/12 02:26:04;;;;;;;;;22.25;21.00;;;;;19.91;73.30;101612.09;5075475;27;45568;-69
2021/08/12 02:28:32;;;;;;;;;24.25;23.50;;;;;19.89;72.64;101606.03;5076196;27;45315;-69
2021/08/12 02:30:59;;;;;;;;;22.00;19.75;;;;;19.84;73.36;101605.47;5075761;27;45459;-69
2021/08/12 02:33:31;;;;;;;;;22.25;19.25;;;;;19.85;72.67;101598.34;5074405;27;45632;-69
2021/08/12 02:35:57;;;;;;;;;21.00;19.50;;;;;19.83;73.13;101600.22;5054943;28;48338;-68
2021/08/12 02:38:24;;;;;;;;;23.25;20.00;;;;;19.79;72.67;101602.28;5075356;27;45398;-68
2021/08/12 02:40:52;;;;;;;;;22.75;18.50;;;;;19.78;72.52;101606.75;5075868;27;45323;-69
2021/08/12 02:43:20;;;;;;;;;22.50;18.75;;;;;19.75;73.16;101603.44;5076785;27;45428;-69
2021/08/12 02:45:47;;;;;;;;;18.75;16.75;;;;;19.70;72.73;101608.22;5074102;27;46309;-68
2021/08/12 02:48:13;;;;;;;;;21.25;16.25;;;;;19.65;73.71;101616.53;5075623;28;45393;-68
2021/08/12 02:50:43;;;;;;;;;18.75;17.50;;;;;19.64;73.20;101616.63;5073925;27;45502;-69
2021/08/12 02:53:09;;;;;;;;;20.00;18.25;;;;;19.61;73.30;101611.50;5075693;28;45427;-68
2021/08/12 02:55:36;;;;;;;;;21.75;18.75;;;;;19.61;73.69;101617.69;5074937;27;45415;-68
2021/08/12 02:58:03;;;;;;;;;21.25;16.00;;;;;19.61;73.47;101619.50;5076730;27;45628;-69
2021/08/12 03:00:30;;;;;;;;;20.75;17.25;;;;;19.60;73.32;101615.97;5074465;27;45462;-68
2021/08/12 03:02:57;;;;;;;;;19.50;16.75;;;;;19.58;73.93;101607.22;5074460;27;45597;-69
2021/08/12 03:05:23;;;;;;;;;19.75;17.00;;;;;19.60;73.59;101617.78;5074834;27;45669;-68
2021/08/12 03:07:48;;;;;;;;;16.25;14.50;;;;;19.55;73.47;101602.06;5075014;27;46097;-69
2021/08/12 03:10:18;;;;;;;;;19.25;16.75;;;;;19.51;73.90;101598.75;5077048;27;45411;-69
2021/08/12 03:12:43;;;;;;;;;17.25;15.50;;;;;19.54;73.89;101603.88;5075486;28;45789;-69
2021/08/12 03:15:11;;;;;;;;;19.50;18.00;;;;;19.51;74.00;101601.41;5075156;27;45504;-68
2021/08/12 03:17:37;;;;;;;;;18.25;16.00;;;;;19.47;74.42;101597.25;5074867;27;45401;-69
2021/08/12 03:20:07;;;;;;;;;14.50;14.50;;;;;19.49;73.89;101595.34;5074704;28;45542;-69
2021/08/12 03:22:33;;;;;;;;;17.25;16.00;;;;;19.49;74.05;101597.16;5073278;27;45254;-68
2021/08/12 03:24:59;;;;;;;;;21.00;15.50;;;;;19.49;73.98;101598.00;5074004;27;47349;-68
2021/08/12 03:27:25;;;;;;;;;3.75;2.00;;;;;19.45;74.49;101591.16;5074910;27;45364;-68
2021/08/12 03:29:51;;;;;;;;;14.25;12.75;;;;;19.47;74.55;101597.25;5073110;27;46173;-69
2021/08/12 03:32:17;;;;;;;;;17.25;15.25;;;;;19.46;74.57;101592.88;5074350;27;45428;-68
2021/08/12 03:34:43;;;;;;;;;13.50;12.50;;;;;19.43;74.44;101595.75;5073700;27;46580;-69
2021/08/12 03:37:09;;;;;;;;;16.50;16.25;;;;;19.43;74.36;101603.75;5076531;28;45386;-69
2021/08/12 03:39:34;;;;;;;;;20.00;15.75;;;;;19.43;74.62;101597.56;5074262;28;53476;-69
2021/08/12 03:42:00;;;;;;;;;15.25;15.00;;;;;19.45;74.52;101591.16;5074239;28;45475;-68
2021/08/12 03:44:25;;;;;;;;;22.75;18.75;;;;;19.45;74.78;101591.16;5074344;27;45563;-69
2021/08/12 03:46:52;;;;;;;;;18.50;16.00;;;;;19.42;74.92;101585.16;5074561;28;45450;-69
2021/08/12 03:49:18;;;;;;;;;17.50;15.75;;;;;19.50;75.09;101601.53;5075454;27;45937;-69
2021/08/12 03:51:43;;;;;;;;;16.75;15.50;;;;;19.50;74.57;101607.69;5073151;27;45476;-68
2021/08/12 03:54:08;;;;;;;;;17.50;15.00;;;;;19.49;75.10;101606.00;5073950;27;45812;-68
2021/08/12 03:56:34;;;;;;;;;23.00;20.00;;;;;19.49;74.55;101590.00;5073865;28;45458;-68
2021/08/12 03:58:59;;;;;;;;;16.75;14.75;;;;;19.46;74.72;101589.34;5074614;27;45598;-68
2021/08/12 04:01:24;;;;;;;;;15.50;14.50;;;;;19.50;74.24;101594.38;5073302;28;59456;-69
2021/08/12 04:03:50;;;;;;;;;11.25;9.50;;;;;19.50;74.44;101599.72;5072959;27;46465;-69
2021/08/12 04:06:15;;;;;;;;;15.00;12.25;;;;;19.51;74.23;101592.56;5074093;27;46272;-68
2021/08/12 04:08:41;;;;;;;;;15.00;13.50;;;;;19.53;74.64;101593.34;5074330;27;45348;-69
2021/08/12 04:11:07;;;;;;;;;17.00;15.25;;;;;19.52;73.89;101592.47;5073990;27;45409;-68
2021/08/12 04:13:32;;;;;;;;;15.00;13.50;;;;;19.51;74.25;101593.41;5074230;27;45521;-69
2021/08/12 04:15:58;;;;;;;;;15.00;12.75;;;;;19.49;73.75;101586.50;5075964;27;45844;-69
2021/08/12 04:18:23;;;;;;;;;12.50;10.50;;;;;19.50;73.77;101591.72;5073202;28;45476;-68
2021/08/12 04:20:49;;;;;;;;;17.50;13.50;;;;;19.49;74.22;101583.81;5073503;28;45383;-69
2021/08/12 04:23:14;;;;;;;;;19.75;14.00;;;;;19.49;73.83;101583.81;5072280;28;45601;-69
2021/08/12 04:25:41;;;;;;;;;13.00;12.00;;;;;19.50;74.12;101580.19;5073943;28;47947;-68
2021/08/12 04:28:06;;;;;;;;;13.75;11.75;;;;;19.48;73.64;101577.63;5075836;28;45531;-69
2021/08/12 04:30:32;;;;;;;;;13.50;12.75;;;;;19.47;73.63;101570.59;5071562;28;45574;-69
2021/08/12 04:32:57;;;;;;;;;13.00;10.25;;;;;19.46;74.18;101576.00;5072942;27;45591;-69
2021/08/12 04:35:22;;;;;;;;;11.50;10.00;;;;;19.46;74.29;101578.69;5073674;27;45472;-69
2021/08/12 04:37:48;;;;;;;;;16.50;13.25;;;;;19.43;74.17;101579.75;5073697;28;45565;-69
2021/08/12 04:40:16;;;;;;;;;13.00;12.00;;;;;19.45;73.74;101579.66;5075856;27;45389;-68
2021/08/12 04:42:42;;;;;;;;;13.75;11.25;;;;;19.46;74.31;101584.00;5071201;28;46851;-68
2021/08/12 04:45:08;;;;;;;;;14.75;12.75;;;;;19.43;73.95;101579.75;5073575;27;45393;-69
2021/08/12 04:47:33;;;;;;;;;15.25;13.50;;;;;19.43;74.57;101573.56;5073234;27;45523;-69
2021/08/12 04:49:59;;;;;;;;;14.50;12.25;;;;;19.43;74.44;101578.91;5072870;27;57286;-69
2021/08/12 04:52:24;;;;;;;;;14.50;12.00;;;;;19.41;74.18;101572.81;5073941;27;46556;-69
2021/08/12 04:54:50;;;;;;;;;14.25;13.00;;;;;19.42;74.33;101575.38;5073552;27;45465;-69
2021/08/12 04:57:15;;;;;;;;;15.25;12.50;;;;;19.39;74.09;101567.59;5073054;27;45542;-68
2021/08/12 04:59:40;;;;;;;;;12.50;10.00;;;;;19.43;74.34;101581.56;5072034;27;45281;-69
2021/08/12 05:02:06;;;;;;;;;16.50;13.75;;;;;19.44;74.67;101577.94;5074381;27;58600;-68
2021/08/12 05:04:31;;;;;;;;;13.50;12.00;;;;;19.50;74.55;101585.53;5072772;27;45465;-69
2021/08/12 05:06:56;;;;;;;;;14.00;11.75;;;;;19.52;74.92;101578.25;5076108;27;45398;-69
2021/08/12 05:09:22;;;;;;;;;15.00;12.50;;;;;19.58;74.66;101582.38;5071444;27;45253;-69
2021/08/12 05:11:47;;;;;;;;;12.00;12.00;;;;;19.58;74.22;101569.88;5073201;27;45544;-69
2021/08/12 05:14:12;;;;;;;;;14.75;12.50;;;;;19.66;73.88;101578.22;5072907;27;45440;-69
2021/08/12 05:16:38;;;;;;;;;15.00;12.50;;;;;19.75;73.47;101576.75;5072969;27;45497;-69
2021/08/12 05:19:03;;;;;;;;;14.25;12.50;;;;;19.81;73.67;101576.34;5073588;27;45559;-69
2021/08/12 05:21:28;;;;;;;;;18.25;14.25;;;;;19.88;73.27;101587.44;5072613;27;54301;-69
2021/08/12 05:23:54;;;;;;;;;13.25;13.25;;;;;19.89;72.90;101571.34;5070637;28;56315;-68
2021/08/12 05:26:19;;;;;;;;;14.00;14.00;;;;;19.96;73.29;101571.75;5072022;27;45407;-68
2021/08/12 05:28:44;;;;;;;;;17.00;16.00;;;;;19.99;72.62;101576.88;5072634;27;57325;-69
2021/08/12 05:31:10;;;;;;;;;13.75;12.50;;;;;20.02;73.10;101580.19;5073507;27;58319;-69
2021/08/12 05:33:36;;;;;;;;;13.25;11.75;;;;;20.08;72.62;101585.09;5072597;28;45483;-69
2021/08/12 05:36:05;;;;;;;;;15.00;13.00;;;;;20.12;72.86;101590.25;5073353;28;45425;-68
2021/08/12 05:38:31;;;;;;;;;15.00;14.50;;;;;20.16;72.15;101589.06;5072592;27;45313;-68
2021/08/12 05:40:57;;;;;;;;;16.50;12.75;;;;;20.20;72.81;101593.22;5072878;28;46646;-69
2021/08/12 05:43:23;;;;;;;;;15.50;12.50;;;;;20.23;72.91;101596.53;5073842;27;45250;-68
2021/08/12 05:45:49;;;;;;;;;18.25;13.50;;;;;20.27;72.34;101592.69;5072208;28;45543;-69
2021/08/12 05:48:14;;;;;;;;;16.75;13.75;;;;;20.30;72.69;101591.59;5070882;27;45524;-69
2021/08/12 05:50:44;;;;;;;;;12.75;11.50;;;;;20.31;72.31;101585.31;5069763;27;54764;-69
2021/08/12 05:53:11;;;;;;;;;18.00;15.00;;;;;20.36;72.09;101588.53;5072125;28;45579;-68
2021/08/12 05:55:36;;;;;;;;;14.25;13.50;;;;;20.40;72.57;101582.00;5072221;27;45518;-69
2021/08/12 05:58:02;;;;;;;;;17.25;15.75;;;;;20.45;72.30;101579.84;5072804;28;45467;-69
2021/08/12 06:00:27;;;;;;;;;13.00;13.00;;;;;20.50;72.45;101574.22;5071170;27;45476;-69
2021/08/12 06:02:52;;;;;;;;;15.50;13.25;;;;;20.50;72.13;101577.72;5072297;28;63320;-69
2021/08/12 06:05:18;;;;;;;;;16.00;14.00;;;;;20.57;72.49;101591.53;5071916;27;45375;-69
2021/08/12 06:07:43;;;;;;;;;13.75;13.75;;;;;20.64;71.94;101586.59;5072274;27;45300;-69
2021/08/12 06:10:09;;;;;;;;;16.00;13.50;;;;;20.75;71.75;101586.66;5073692;28;46940;-69
2021/08/12 06:12:34;;;;;;;;;15.00;14.25;;;;;20.85;71.76;101587.72;5070306;27;46021;-69
2021/08/12 06:14:59;;;;;;;;;12.75;11.00;;;;;20.93;71.57;101587.97;5070405;28;48075;-68
2021/08/12 06:17:25;;;;;;;;;13.00;13.00;;;;;21.07;70.99;101595.84;5071650;28;49376;-68
2021/08/12 06:19:50;;;;;;;;;15.00;14.25;;;;;21.26;70.99;101594.50;5071806;28;45595;-70
2021/08/12 06:22:15;;;;;;;;;14.25;13.25;;;;;21.41;70.50;101598.75;5073279;27;45397;-68
2021/08/12 06:24:41;;;;;;;;;16.75;13.75;;;;;21.50;70.01;101600.72;5070616;27;45380;-69
2021/08/12 06:27:06;;;;;;;;;14.75;13.25;;;;;21.58;69.79;101603.66;5069746;28;55033;-69
2021/08/12 06:29:31;;;;;;;;;14.25;11.25;;;;;21.64;69.80;101597.00;5071138;28;45437;-69
2021/08/12 06:31:56;;;;;;;;;12.50;12.50;;;;;21.69;68.86;101602.84;5074272;27;45452;-68
2021/08/12 06:34:22;;;;;;;;;12.25;10.50;;;;;21.75;69.26;101602.38;5075539;28;56007;-68
2021/08/12 06:36:47;;;;;;;;;13.00;12.25;;;;;21.78;68.85;101610.19;5075886;27;45730;-68
2021/08/12 06:39:12;;;;;;;;;13.00;12.50;;;;;21.77;68.96;101597.78;5074879;27;54647;-69
2021/08/12 06:41:38;;;;;;;;;17.00;12.00;;;;;21.73;68.43;101595.47;5075043;27;45498;-68
2021/08/12 06:44:03;;;;;;;;;13.75;13.50;;;;;21.74;68.03;101599.84;5075630;27;45565;-68
2021/08/12 06:46:29;;;;;;;;;13.25;11.50;;;;;21.60;67.93;101585.66;5075797;28;45386;-68
2021/08/12 06:48:54;;;;;;;;;12.50;10.25;;;;;21.71;68.37;101603.56;5077214;28;45406;-68
2021/08/12 06:51:19;;;;;;;;;17.25;11.25;;;;;21.77;67.77;101600.47;5075043;28;45311;-68
2021/08/12 06:53:45;;;;;;;;;16.50;14.50;;;;;21.86;67.97;101601.56;5075156;28;45427;-68
2021/08/12 06:56:10;;;;;;;;;16.25;12.50;;;;;21.97;68.16;101606.09;5075676;27;45592;-68
2021/08/12 06:58:35;;;;;;;;;13.75;12.50;;;;;22.07;68.01;101605.25;5074619;27;45389;-68
2021/08/12 07:01:01;;;;;;;;;13.00;12.00;;;;;22.23;67.40;101601.41;5091579;27;45426;-68
2021/08/12 07:03:26;;;;;;;;;14.50;12.75;;;;;22.42;67.25;101596.31;5074938;27;45441;-68
2021/08/12 07:05:51;;;;;;;;;11.00;11.00;;;;;22.63;67.19;101597.28;5073825;28;45401;-69
2021/08/12 07:08:16;;;;;;;;;19.00;13.50;;;;;22.79;66.52;101594.22;5074797;27;45418;-69
2021/08/12 07:10:42;;;;;;;;;13.75;12.00;;;;;22.88;66.39;101595.34;5074139;28;49122;-69
2021/08/12 07:13:07;;;;;;;;;14.25;14.00;;;;;22.97;66.41;101586.56;5076154;27;45482;-70
2021/08/12 07:15:33;;;;;;;;;16.00;14.50;;;;;23.09;66.26;101585.53;5075053;28;45293;-71
2021/08/12 07:18:00;;;;;;;;;13.25;11.25;;;;;23.23;65.62;101581.75;5074694;27;57254;-70
2021/08/12 07:20:25;;;;;;;;;9.75;9.75;;;;;23.40;65.67;101583.00;5075566;27;45350;-69
2021/08/12 07:22:50;;;;;;;;;13.50;12.75;;;;;23.58;65.18;101589.50;5073883;27;45527;-70
2021/08/12 07:25:16;;;;;;;;;11.50;9.50;;;;;23.63;64.23;101579.25;5076761;28;45415;-70
2021/08/12 07:27:41;;;;;;;;;8.25;8.00;;;;;23.79;64.08;101584.16;5073816;28;46469;-69
2021/08/12 07:30:07;;;;;;;;;13.75;10.00;;;;;23.82;64.05;101577.69;5074936;27;45485;-69
2021/08/12 07:32:33;;;;;;;;;15.25;11.00;;;;;23.98;63.46;101594.19;5074906;27;45310;-69
2021/08/12 07:34:58;;;;;;;;;9.00;9.00;;;;;24.03;63.93;101600.00;5074930;28;45584;-70
2021/08/12 07:37:24;;;;;;;;;13.00;10.25;;;;;24.11;63.60;101596.66;5075880;27;46118;-70
2021/08/12 07:39:49;;;;;;;;;11.75;10.00;;;;;24.20;63.68;101598.56;5075024;27;51220;-69
2021/08/12 07:42:19;;;;;;;;;12.75;10.75;;;;;24.32;63.79;101594.78;5073393;27;46775;-69
2021/08/12 07:44:45;;;;;;;;;12.75;9.00;;;;;24.40;62.73;101584.25;5072826;28;45392;-69
2021/08/12 07:47:11;;;;;;;;;13.25;12.00;;;;;24.53;62.49;101575.94;5074508;28;46170;-69
2021/08/12 07:49:36;;;;;;;;;14.00;12.50;;;;;24.68;62.35;101579.97;5073997;27;56742;-69
2021/08/12 07:52:02;;;;;;;;;15.50;12.25;;;;;24.83;61.77;101580.44;5076358;27;45357;-69
2021/08/12 07:54:27;;;;;;;;;13.25;11.50;;;;;25.01;61.77;101582.47;5074157;27;45461;-69
2021/08/12 07:56:53;;;;;;;;;13.75;12.50;;;;;25.12;60.90;101577.84;5073623;28;45448;-69
2021/08/12 07:59:18;;;;;;;;;12.00;10.25;;;;;25.30;61.04;101574.44;5074321;27;45457;-69
2021/08/12 08:01:44;;;;;;;;;13.25;11.25;;;;;25.49;59.83;101587.91;5073711;27;45431;-69
2021/08/12 08:04:09;;;;;;;;;13.00;12.25;;;;;25.54;59.48;101574.03;5075833;28;45619;-69
2021/08/12 08:06:34;;;;;;;;;11.50;11.25;;;;;25.59;59.51;101571.75;5074421;27;45435;-71
2021/08/12 08:09:00;;;;;;;;;25.25;22.50;;;;;25.77;59.27;101573.59;5073420;27;45658;-70
2021/08/12 08:11:25;;;;;;;;;41.75;35.25;;;;;25.98;59.70;101577.94;5071947;27;45480;-71
2021/08/12 08:13:50;;;;;;;;;16.75;16.00;;;;;26.16;58.57;101573.50;5073914;28;45315;-70
2021/08/12 08:16:16;;;;;;;;;13.00;12.00;;;;;26.37;58.23;101578.66;5076305;28;46351;-70
2021/08/12 08:18:41;;;;;;;;;14.50;10.75;;;;;26.50;57.33;101576.50;5072576;28;45349;-70
2021/08/12 08:21:07;;;;;;;;;13.00;13.00;;;;;26.70;57.11;101576.41;5074145;28;45366;-70
2021/08/12 08:23:32;;;;;;;;;14.75;13.25;;;;;26.80;57.01;101571.81;5071927;28;45450;-70
2021/08/12 08:25:57;;;;;;;;;16.25;14.00;;;;;26.93;57.01;101568.72;5072945;27;46151;-70
2021/08/12 08:28:23;;;;;;;;;11.75;11.75;;;;;27.04;56.48;101579.31;5074183;27;45309;-70
2021/08/12 08:30:48;;;;;;;;;14.50;11.75;;;;;27.11;55.76;101575.03;5078214;27;45406;-70
2021/08/12 08:33:13;;;;;;;;;13.25;12.00;;;;;27.19;55.64;101568.88;5072300;27;45392;-71
2021/08/12 08:35:39;;;;;;;;;13.00;13.00;;;;;27.36;55.77;101570.72;5073623;27;45461;-71
2021/08/12 08:38:05;;;;;;;;;11.50;10.50;;;;;27.51;55.32;101573.69;5073220;27;45489;-70
2021/08/12 08:40:30;;;;;;;;;16.00;13.00;;;;;27.64;56.34;101566.06;5074198;27;45369;-70
2021/08/12 08:42:56;;;;;;;;;11.50;9.75;;;;;27.75;54.67;101571.22;5073527;27;45466;-70
2021/08/12 08:45:29;;;;;;;;;13.50;11.00;;;;;27.96;54.72;101575.44;5074030;28;46255;-70
2021/08/12 08:47:56;;;;;;;;;13.50;11.50;;;;;28.04;54.28;101570.09;5073559;27;45657;-70
2021/08/12 08:50:25;;;;;;;;;10.00;10.00;;;;;28.21;54.30;101571.03;5073710;27;45438;-70
2021/08/12 08:52:52;;;;;;;;;8.00;8.00;;;;;28.40;54.49;101578.94;5073426;27;45410;-70
2021/08/12 08:55:25;;;;;;;;;10.50;10.50;;;;;28.59;53.94;101575.94;5075608;27;46416;-70
2021/08/12 08:57:58;;;;;;;;;12.50;11.50;;;;;28.77;53.92;101586.69;5074480;28;45577;-70
2021/08/12 09:00:25;;;;;;;;;10.00;10.00;;;;;28.87;52.83;101583.84;5073599;27;45541;-70
2021/08/12 09:02:51;;;;;;;;;13.75;11.00;;;;;29.10;52.98;101584.09;5073224;27;45573;-70
2021/08/12 09:05:17;;;;;;;;;11.50;11.00;;;;;29.32;52.81;101593.41;5073470;27;46147;-70
2021/08/12 09:07:43;;;;;;;;;14.75;12.25;;;;;29.52;51.55;101594.78;5073042;27;45553;-71
2021/08/12 09:10:11;;;;;;;;;11.25;9.50;;;;;29.78;51.45;101599.22;5075956;27;45658;-70
2021/08/12 09:12:37;;;;;;;;;15.25;11.00;;;;;30.09;51.59;101591.19;5073307;27;45441;-70
2021/08/12 09:15:05;;;;;;;;;9.50;7.75;;;;;30.46;51.09;101590.59;5073078;28;45555;-70
2021/08/12 09:17:31;;;;;;;;;9.75;9.25;;;;;30.91;50.46;101595.34;5073173;27;45868;-70
2021/08/12 09:20:07;;;;;;;;;10.25;9.25;;;;;31.37;50.44;101594.53;5072670;27;45358;-70
2021/08/12 09:22:57;;;;;;;;;11.50;10.00;;;;;31.70;48.82;101598.69;5072823;28;45387;-70
2021/08/12 09:25:36;;;;;;;;;10.75;9.50;;;;;32.03;48.78;101590.25;5071218;27;45366;-70
2021/08/12 09:28:12;;;;;;;;;10.25;9.75;;;;;32.64;48.08;101592.81;5072971;28;45549;-70
2021/08/12 09:30:37;;;;;;;;;9.50;9.25;;;;;33.41;47.19;101598.53;5072732;28;45673;-70
2021/08/12 09:33:03;;;;;;;;;11.25;10.25;;;;;34.08;45.63;101589.00;5073012;27;45421;-70
2021/08/12 09:35:29;;;;;;;;;10.25;9.50;;;;;34.77;45.62;101596.31;5073274;28;45527;-70
2021/08/12 09:38:07;;;;;;;;;14.50;9.25;;;;;35.45;43.87;101590.84;5072484;27;45521;-70
2021/08/12 09:40:32;;;;;;;;;12.75;10.25;;;;;35.97;42.90;101589.13;5073701;27;45375;-70
2021/08/12 09:43:05;;;;;;;;;12.00;10.00;;;;;36.33;42.28;101588.63;5072894;28;45364;-70
2021/08/12 09:45:32;;;;;;;;;10.25;8.00;;;;;36.63;41.28;101588.13;5072870;27;45484;-70
2021/08/12 09:48:16;;;;;;;;;10.75;9.00;;;;;36.91;42.08;101591.41;5072588;27;45427;-71
2021/08/12 09:50:43;;;;;;;;;8.75;8.75;;;;;37.00;39.51;101591.97;5072557;27;45507;-71
2021/08/12 09:53:17;;;;;;;;;8.50;7.75;;;;;37.16;39.68;101593.34;5072963;28;45524;-71
2021/08/12 09:55:44;;;;;;;;;11.25;11.00;;;;;37.49;39.92;101588.50;5072776;27;48011;-71
2021/08/12 09:58:10;;;;;;;;;11.25;9.25;;;;;37.76;39.39;101588.25;5074103;28;45593;-71
2021/08/12 10:00:39;;;;;;;;;10.00;8.50;;;;;38.02;38.63;101585.28;5071503;27;45643;-70
2021/08/12 10:03:25;;;;;;;;;11.75;8.25;;;;;38.25;38.57;101587.31;5072824;27;45631;-71
2021/08/12 10:05:54;;;;;;;;;11.00;10.00;;;;;38.36;38.65;101588.50;5072930;27;46517;-71
2021/08/12 10:08:32;;;;;;;;;10.50;8.50;;;;;38.39;37.53;101582.56;5076340;27;45465;-71
2021/08/12 10:11:26;;;;;;;;;11.00;7.75;;;;;38.45;37.01;101578.88;5062208;28;45567;-70
2021/08/12 10:14:00;;;;;;;;;10.50;8.50;;;;;38.68;37.08;101586.41;5061224;28;45440;-71
2021/08/12 10:16:28;;;;;;;;;8.75;7.00;;;;;38.89;36.39;101580.44;5077122;27;45718;-71
2021/08/12 10:18:55;;;;;;;;;9.75;7.50;;;;;39.01;36.05;101580.47;5077477;28;45574;-71
2021/08/12 10:21:21;;;;;;;;;9.25;8.00;;;;;38.83;35.52;101578.59;5074060;27;45352;-71
2021/08/12 10:23:49;;;;;;;;;8.25;8.25;;;;;38.55;35.90;101573.69;5075856;28;45420;-71
2021/08/12 10:26:17;;;;;;;;;10.50;9.25;;;;;38.27;36.68;101576.97;5076207;27;45599;-71
2021/08/12 10:28:44;;;;;;;;;9.00;9.00;;;;;38.08;36.03;101580.78;5075131;27;45689;-71
2021/08/12 10:31:15;;;;;;;;;11.75;10.50;;;;;37.90;37.11;101562.38;5093603;27;45358;-71
2021/08/12 10:33:43;;;;;;;;;14.50;12.50;;;;;37.92;37.21;101576.72;5075990;27;45617;-71
2021/08/12 10:36:08;;;;;;;;;12.75;11.00;;;;;37.74;36.23;101579.38;5075197;28;46903;-71
2021/08/12 10:38:34;;;;;;;;;13.00;11.00;;;;;37.53;36.54;101573.25;5074200;27;45551;-71
2021/08/12 10:41:02;;;;;;;;;9.75;9.75;;;;;37.39;36.11;101571.69;5091177;27;45505;-71
2021/08/12 10:43:29;;;;;;;;;11.75;10.75;;;;;37.25;36.18;101570.91;5075583;28;45418;-71
2021/08/12 10:45:58;;;;;;;;;12.25;11.00;;;;;37.25;36.72;101576.41;5076949;28;45499;-71
2021/08/12 10:48:26;;;;;;;;;13.00;11.00;;;;;37.13;36.21;101569.13;5075114;27;45469;-71
2021/08/12 10:51:11;;;;;;;;;10.00;10.00;;;;;37.07;35.97;101568.13;5070888;27;45363;-71
2021/08/12 10:54:04;;;;;;;;;11.00;9.00;;;;;36.98;36.28;101564.78;5075507;27;45454;-71
2021/08/12 10:56:37;;;;;;;;;10.00;10.00;;;;;36.85;36.05;101567.56;5075122;28;47173;-70
2021/08/12 10:59:06;;;;;;;;;11.25;9.25;;;;;36.61;36.42;101554.66;5072886;27;47314;-71
2021/08/12 11:01:39;;;;;;;;;10.00;8.50;;;;;36.31;35.64;101564.22;5075824;27;45345;-71
2021/08/12 11:04:06;;;;;;;;;11.25;9.75;;;;;36.04;35.98;101566.19;5075897;28;45442;-70
2021/08/12 11:06:36;;;;;;;;;11.00;9.00;;;;;35.91;36.06;101566.19;5075290;27;46057;-71
2021/08/12 11:09:03;;;;;;;;;11.00;9.25;;;;;35.84;36.08;101568.09;5075232;27;45562;-71
2021/08/12 11:11:28;;;;;;;;;10.00;10.00;;;;;35.75;35.87;101564.72;5075281;27;45428;-70
2021/08/12 11:14:03;;;;;;;;;11.50;10.50;;;;;35.67;36.20;101556.75;5076258;28;45375;-70